createdAt,value
2022-11-18T00:01:34.131Z,10.15
2022-11-18T00:04:02.593Z,16.10
2022-11-18T00:06:31.286Z,17.23
2022-11-18T00:09:00.809Z,10.05
2022-11-18T00:11:48.381Z,9.10
2022-11-18T00:14:27.585Z,8.73
2022-11-18T00:16:58.599Z,7.15
2022-11-18T00:19:29.322Z,9.63
2022-11-18T00:22:01.628Z,8.07
2022-11-18T00:24:29.587Z,8.48
2022-11-18T00:26:58.072Z,9.95
2022-11-18T00:29:28.643Z,7.90
2022-11-18T00:31:58.382Z,10.98
2022-11-18T00:34:26.613Z,9.18
2022-11-18T00:36:57.530Z,8.85
2022-11-18T00:39:26.495Z,7.85
2022-11-18T00:42:12.552Z,8.50
2022-11-18T00:44:43.962Z,6.32
2022-11-18T00:47:11.958Z,8.85
2022-11-18T00:49:40.198Z,14.63
2022-11-18T00:52:08.026Z,12.30
2022-11-18T00:54:35.915Z,7.82
2022-11-18T00:57:05.620Z,8.10
2022-11-18T00:59:33.831Z,7.28
2022-11-18T01:02:01.760Z,6.22
2022-11-18T01:04:30.039Z,8.88
2022-11-18T01:06:57.965Z,6.57
2022-11-18T01:09:28.681Z,5.70
2022-11-18T01:12:15.871Z,6.43
2022-11-18T01:14:43.748Z,5.07
2022-11-18T01:17:12.014Z,10.50
2022-11-18T01:19:39.970Z,8.25
2022-11-18T01:22:08.010Z,7.03
2022-11-18T01:24:38.993Z,6.45
2022-11-18T01:27:06.993Z,7.82
2022-11-18T01:29:34.957Z,6.45
2022-11-18T01:32:25.288Z,7.70
2022-11-18T01:34:51.287Z,10.45
2022-11-18T01:37:22.591Z,11.52
2022-11-18T01:39:50.336Z,6.55
2022-11-18T01:42:18.522Z,7.53
2022-11-18T01:45:10.134Z,6.12
2022-11-18T01:47:56.170Z,7.82
2022-11-18T01:50:25.462Z,9.52
2022-11-18T01:52:58.061Z,6.37
2022-11-18T01:58:04.881Z,8.65
2022-11-18T02:00:37.189Z,8.35
2022-11-18T02:03:06.262Z,6.68
2022-11-18T02:05:35.502Z,7.50
2022-11-18T02:08:04.025Z,8.35
2022-11-18T02:10:31.995Z,8.05
2022-11-18T02:13:00.727Z,6.82
2022-11-18T02:16:11.669Z,7.35
2022-11-18T02:18:58.792Z,4.85
2022-11-18T02:22:04.733Z,8.25
2022-11-18T02:24:50.565Z,8.40
2022-11-18T02:27:56.256Z,6.97
2022-11-18T02:30:24.770Z,7.78
2022-11-18T02:33:13.744Z,6.10
2022-11-18T02:36:02.193Z,9.52
2022-11-18T02:38:37.496Z,5.60
2022-11-18T02:41:10.737Z,7.72
2022-11-18T02:43:48.631Z,7.47
2022-11-18T02:46:22.705Z,8.93
2022-11-18T02:48:53.336Z,6.10
2022-11-18T02:51:26.304Z,6.97
2022-11-18T02:54:03.119Z,8.05
2022-11-18T02:56:33.391Z,6.05
2022-11-18T02:59:01.804Z,6.55
2022-11-18T03:01:32.842Z,6.85
2022-11-18T03:04:01.145Z,6.75
2022-11-18T03:06:42.506Z,6.65
2022-11-18T03:09:34.554Z,5.60
2022-11-18T03:12:24.915Z,11.65
2022-11-18T03:15:08.640Z,8.32
2022-11-18T03:18:01.411Z,6.57
2022-11-18T03:20:47.907Z,7.32
2022-11-18T03:23:28.344Z,5.90
2022-11-18T03:26:12.884Z,7.30
2022-11-18T03:28:40.671Z,5.62
2022-11-18T03:31:25.309Z,6.32
2022-11-18T03:34:05.596Z,7.97
2022-11-18T03:36:39.958Z,7.55
2022-11-18T03:39:14.123Z,7.32
2022-11-18T03:42:15.378Z,7.00
2022-11-18T03:44:52.505Z,7.25
2022-11-18T03:47:34.259Z,6.70
2022-11-18T03:50:13.921Z,6.30
2022-11-18T03:52:43.694Z,8.38
2022-11-18T03:55:25.107Z,6.03
2022-11-18T03:58:02.134Z,6.32
2022-11-18T04:00:55.819Z,7.10
2022-11-18T04:03:26.494Z,7.78
2022-11-18T04:06:05.493Z,7.53
2022-11-18T04:08:41.154Z,7.25
2022-11-18T04:11:40.398Z,6.22
2022-11-18T04:14:12.668Z,9.93
2022-11-18T04:16:43.036Z,7.30
2022-11-18T04:19:11.751Z,6.87
2022-11-18T04:21:39.472Z,5.25
2022-11-18T04:24:07.576Z,6.78
2022-11-18T04:26:35.868Z,5.65
2022-11-18T04:29:06.816Z,7.18
2022-11-18T04:31:35.019Z,7.40
2022-11-18T04:34:02.851Z,7.80
2022-11-18T04:36:30.773Z,7.70
2022-11-18T04:38:59.017Z,7.22
2022-11-18T04:41:46.686Z,6.30
2022-11-18T04:44:14.880Z,8.55
2022-11-18T04:46:44.014Z,6.85
2022-11-18T04:49:14.179Z,7.82
2022-11-18T04:51:43.743Z,7.30
2022-11-18T04:54:12.494Z,7.68
2022-11-18T04:56:45.784Z,6.32
2022-11-18T04:59:20.989Z,5.68
2022-11-18T05:01:53.153Z,5.57
2022-11-18T05:04:26.777Z,6.32
2022-11-18T05:06:54.832Z,10.38
2022-11-18T05:09:26.075Z,6.68
2022-11-18T05:12:16.719Z,7.45
2022-11-18T05:14:49.535Z,7.40
2022-11-18T05:17:19.476Z,6.47
2022-11-18T05:19:47.687Z,7.15
2022-11-18T05:22:16.268Z,7.85
2022-11-18T05:24:44.079Z,8.13
2022-11-18T05:27:13.029Z,6.53
2022-11-18T05:29:44.498Z,7.45
2022-11-18T05:32:12.796Z,9.05
2022-11-18T05:34:44.667Z,8.70
2022-11-18T05:37:13.165Z,10.02
2022-11-18T05:39:41.270Z,8.27
2022-11-18T05:42:29.011Z,8.20
2022-11-18T05:44:58.780Z,10.98
2022-11-18T05:47:27.615Z,9.88
2022-11-18T05:49:55.405Z,7.43
2022-11-18T05:52:23.621Z,7.28
2022-11-18T05:54:52.113Z,8.57
2022-11-18T05:57:20.016Z,7.03
2022-11-18T05:59:48.295Z,8.20
2022-11-18T06:02:23.272Z,9.27
2022-11-18T06:04:57.505Z,7.45
2022-11-18T06:07:33.476Z,6.05
2022-11-18T06:10:05.866Z,8.15
2022-11-18T06:15:18.886Z,8.77
2022-11-18T06:17:55.726Z,7.12
2022-11-18T06:20:24.405Z,9.77
2022-11-18T06:22:55.241Z,6.75
2022-11-18T06:25:26.301Z,9.18
2022-11-18T06:27:59.947Z,5.40
2022-11-18T06:30:28.267Z,9.90
2022-11-18T06:32:56.503Z,7.57
2022-11-18T06:35:27.471Z,8.93
2022-11-18T06:37:55.426Z,5.68
2022-11-18T06:40:23.717Z,7.35
2022-11-18T06:43:10.059Z,8.15
2022-11-18T06:45:38.427Z,7.95
2022-11-18T06:48:06.700Z,7.78
2022-11-18T06:50:37.811Z,6.70
2022-11-18T06:53:06.105Z,8.38
2022-11-18T06:55:35.774Z,7.62
2022-11-18T06:58:03.587Z,7.30
2022-11-18T07:00:31.929Z,8.05
2022-11-18T07:02:59.843Z,8.02
2022-11-18T07:05:27.721Z,7.95
2022-11-18T07:07:55.996Z,7.55
2022-11-18T07:10:23.956Z,7.45
2022-11-18T07:12:51.860Z,5.80
2022-11-18T07:15:20.028Z,7.55
2022-11-18T07:17:47.964Z,5.80
2022-11-18T07:20:16.144Z,7.60
2022-11-18T07:22:47.340Z,8.77
2022-11-18T07:25:15.106Z,7.85
2022-11-18T07:27:42.879Z,5.82
2022-11-18T07:30:11.752Z,7.90
2022-11-18T07:32:39.675Z,5.78
2022-11-18T07:35:07.997Z,7.65
2022-11-18T07:37:39.394Z,5.40
2022-11-18T07:40:08.107Z,7.30
2022-11-18T07:42:43.545Z,5.65
2022-11-18T07:45:24.634Z,7.00
2022-11-18T07:47:52.888Z,7.50
2022-11-18T07:50:20.798Z,7.50
2022-11-18T07:52:48.667Z,5.72
2022-11-18T07:55:17.158Z,6.95
2022-11-18T07:57:45.061Z,6.90
2022-11-18T08:00:13.342Z,7.28
2022-11-18T08:02:43.798Z,6.57
2022-11-18T08:05:17.537Z,7.37
2022-11-18T08:07:46.621Z,5.10
2022-11-18T08:10:14.612Z,7.00
2022-11-18T08:12:42.491Z,7.50
2022-11-18T08:15:11.157Z,5.75
2022-11-18T08:17:39.047Z,7.85
2022-11-18T08:20:07.390Z,6.32
2022-11-18T08:22:35.658Z,6.00
2022-11-18T08:25:03.710Z,6.25
2022-11-18T08:27:32.748Z,6.43
2022-11-18T08:30:01.096Z,7.50
2022-11-18T08:32:31.336Z,6.62
2022-11-18T08:34:59.398Z,5.68
2022-11-18T08:37:27.772Z,7.78
2022-11-18T08:39:58.900Z,6.50
2022-11-18T08:42:32.912Z,5.90
2022-11-18T08:45:08.856Z,5.80
2022-11-18T08:47:38.919Z,5.10
2022-11-18T08:50:12.685Z,6.18
2022-11-18T08:52:41.315Z,8.00
2022-11-18T08:55:09.855Z,5.57
2022-11-18T08:57:38.573Z,6.57
2022-11-18T09:00:08.576Z,6.97
2022-11-18T09:02:37.244Z,7.32
2022-11-18T09:05:05.630Z,5.53
2022-11-18T09:07:34.023Z,7.60
2022-11-18T09:10:01.982Z,6.97
2022-11-18T09:12:31.026Z,6.72
2022-11-18T09:15:13.271Z,6.20
2022-11-18T09:17:42.505Z,6.57
2022-11-18T09:20:11.175Z,7.62
2022-11-18T09:22:42.025Z,5.50
2022-11-18T09:25:10.675Z,6.20
2022-11-18T09:27:38.668Z,5.37
2022-11-18T09:30:07.172Z,4.82
2022-11-18T09:32:35.531Z,9.13
2022-11-18T09:35:03.383Z,13.05
2022-11-18T09:37:31.337Z,7.53
2022-11-18T09:39:59.842Z,7.50
2022-11-18T09:42:33.371Z,7.12
2022-11-18T09:45:01.557Z,7.25
2022-11-18T09:47:33.485Z,6.37
2022-11-18T09:50:47.761Z,6.75
2022-11-18T09:53:22.426Z,5.78
2022-11-18T09:55:52.032Z,6.72
2022-11-18T09:58:34.734Z,6.07
2022-11-18T10:01:04.574Z,6.97
2022-11-18T10:03:34.093Z,8.88
2022-11-18T10:06:23.358Z,8.07
2022-11-18T10:09:11.427Z,8.30
2022-11-18T10:12:04.552Z,7.82
2022-11-18T10:15:10.015Z,6.10
2022-11-18T10:17:50.816Z,13.40
2022-11-18T10:20:49.789Z,12.20
2022-11-18T10:23:44.439Z,6.93
2022-11-18T10:26:13.325Z,9.23
2022-11-18T10:28:41.254Z,9.35
2022-11-18T10:31:12.816Z,8.10
2022-11-18T10:33:41.069Z,9.97
2022-11-18T10:36:18.168Z,8.48
2022-11-18T10:38:49.936Z,9.38
2022-11-18T10:41:22.353Z,10.35
2022-11-18T10:43:56.338Z,9.13
2022-11-18T10:46:30.424Z,9.45
2022-11-18T10:49:10.762Z,10.25
2022-11-18T10:51:41.369Z,9.18
2022-11-18T10:54:19.740Z,10.07
2022-11-18T10:57:11.343Z,9.73
2022-11-18T10:59:51.853Z,7.12
2022-11-18T11:02:32.937Z,7.22
2022-11-18T11:05:20.478Z,10.05
2022-11-18T11:08:34.537Z,9.93
2022-11-18T11:11:01.545Z,10.77
2022-11-18T11:13:32.574Z,8.60
2022-11-18T11:16:05.673Z,8.20
2022-11-18T11:18:43.381Z,10.23
2022-11-18T11:21:18.835Z,10.27
2022-11-18T11:23:47.270Z,10.38
2022-11-18T11:29:54.851Z,10.13
2022-11-18T11:35:34.483Z,8.52
2022-11-18T11:38:13.722Z,9.98
2022-11-18T11:40:59.625Z,9.85
2022-11-18T11:43:36.522Z,7.75
2022-11-18T11:46:28.989Z,9.35
2022-11-18T11:49:24.814Z,10.18
2022-11-18T11:52:03.043Z,8.90
2022-11-18T11:54:49.692Z,10.77
2022-11-18T11:57:27.387Z,10.40
2022-11-18T12:00:01.742Z,14.32
2022-11-18T12:03:07.856Z,8.30
2022-11-18T12:05:43.453Z,10.25
2022-11-18T12:08:24.766Z,11.20
2022-11-18T12:11:17.791Z,11.52
2022-11-18T12:14:06.958Z,10.23
2022-11-18T12:16:52.363Z,9.88
2022-11-18T12:19:23.214Z,10.30
2022-11-18T12:22:00.696Z,9.52
2022-11-18T12:24:40.056Z,10.27
2022-11-18T12:27:36.107Z,12.90
2022-11-18T12:30:19.233Z,12.27
2022-11-18T12:32:47.523Z,10.73
2022-11-18T12:35:31.730Z,9.07
2022-11-18T12:38:01.101Z,12.90
2022-11-18T12:40:41.053Z,11.75
2022-11-18T12:43:47.260Z,9.82
2022-11-18T12:46:27.165Z,9.60
2022-11-18T12:48:55.466Z,10.20
2022-11-18T12:51:24.912Z,8.73
2022-11-18T12:53:53.489Z,10.30
2022-11-18T12:56:28.378Z,8.93
2022-11-18T12:59:01.645Z,10.60
2022-11-18T13:01:37.624Z,10.88
2022-11-18T13:04:15.104Z,14.07
2022-11-18T13:06:45.140Z,13.20
2022-11-18T13:09:25.204Z,12.77
2022-11-18T13:12:04.567Z,10.18
2022-11-18T13:15:02.227Z,11.48
2022-11-18T13:17:55.349Z,9.77
2022-11-18T13:20:37.714Z,11.32
2022-11-18T13:23:36.304Z,7.68
2022-11-18T13:26:17.353Z,12.90
2022-11-18T13:28:45.579Z,9.75
2022-11-18T13:31:15.901Z,11.55
2022-11-18T13:33:43.973Z,8.40
2022-11-18T13:36:26.427Z,9.05
2022-11-18T13:38:59.682Z,9.32
2022-11-18T13:41:38.448Z,9.77
2022-11-18T13:44:28.918Z,12.80
2022-11-18T13:47:02.448Z,14.43
2022-11-18T13:49:56.452Z,18.62
2022-11-18T13:52:40.205Z,13.70
2022-11-18T13:55:15.015Z,22.50
2022-11-18T13:57:50.626Z,22.40
2022-11-18T14:00:26.427Z,15.43
2022-11-18T14:03:25.283Z,10.07
2022-11-18T14:05:57.605Z,14.52
2022-11-18T14:08:37.795Z,12.07
2022-11-18T14:11:07.179Z,14.48
2022-11-18T14:13:52.160Z,11.52
2022-11-18T14:16:20.751Z,11.48
2022-11-18T14:18:54.403Z,11.35
2022-11-18T14:21:31.402Z,8.82
2022-11-18T14:24:00.524Z,8.63
2022-11-18T14:26:36.810Z,11.05
2022-11-18T14:29:23.514Z,13.20
2022-11-18T14:32:14.909Z,11.12
2022-11-18T14:34:45.491Z,13.90
2022-11-18T14:37:15.330Z,17.62
2022-11-18T14:39:58.611Z,16.62
2022-11-18T14:42:26.538Z,17.08
2022-11-18T14:44:54.767Z,14.50
2022-11-18T14:47:29.643Z,14.25
2022-11-18T14:49:57.961Z,10.20
2022-11-18T14:52:25.998Z,10.25
2022-11-18T14:54:53.919Z,12.63
2022-11-18T14:57:22.128Z,9.65
2022-11-18T14:59:52.765Z,12.25
2022-11-18T15:02:20.840Z,11.07
2022-11-18T15:04:51.033Z,11.20
2022-11-18T15:07:23.951Z,12.63
2022-11-18T15:09:53.077Z,12.37
2022-11-18T15:12:20.999Z,10.65
2022-11-18T15:14:49.130Z,12.65
2022-11-18T15:17:20.459Z,16.92
2022-11-18T15:19:49.227Z,26.48
2022-11-18T15:22:17.851Z,27.92
2022-11-18T15:24:45.580Z,22.13
2022-11-18T15:27:13.332Z,13.93
2022-11-18T15:29:41.563Z,22.00
2022-11-18T15:32:09.399Z,18.60
2022-11-18T15:34:37.234Z,47.05
2022-11-18T15:37:05.583Z,50.58
2022-11-18T15:39:33.330Z,22.95
2022-11-18T15:42:01.082Z,23.38
2022-11-18T15:44:29.390Z,21.80
2022-11-18T15:46:57.617Z,13.80
2022-11-18T15:49:25.491Z,10.57
2022-11-18T15:51:56.949Z,10.95
2022-11-18T15:54:24.977Z,10.90
2022-11-18T15:56:53.241Z,9.77
2022-11-18T15:59:21.219Z,10.82
2022-11-18T16:01:49.875Z,9.02
2022-11-18T16:04:19.553Z,11.05
2022-11-18T16:06:48.600Z,14.10
2022-11-18T16:09:17.896Z,11.63
2022-11-18T16:12:07.662Z,13.82
2022-11-18T16:14:38.727Z,19.48
2022-11-18T16:17:07.078Z,19.02
2022-11-18T16:19:35.152Z,31.62
2022-11-18T16:22:03.112Z,15.45
2022-11-18T16:24:48.488Z,14.05
2022-11-18T16:27:21.731Z,24.15
2022-11-18T16:29:50.049Z,14.75
2022-11-18T16:32:18.161Z,22.90
2022-11-18T16:34:46.111Z,11.15
2022-11-18T16:37:14.550Z,19.60
2022-11-18T16:39:42.531Z,23.92
2022-11-18T16:42:12.079Z,12.40
2022-11-18T16:44:44.001Z,16.60
2022-11-18T16:47:14.929Z,11.02
2022-11-18T16:49:44.377Z,13.18
2022-11-18T16:52:12.850Z,15.90
2022-11-18T16:54:45.214Z,36.13
2022-11-18T16:57:14.525Z,50.33
2022-11-18T16:59:42.371Z,42.17
2022-11-18T17:02:13.239Z,17.73
2022-11-18T17:04:41.615Z,9.80
2022-11-18T17:07:09.609Z,7.68
2022-11-18T17:09:37.634Z,11.12
2022-11-18T17:12:08.837Z,9.43
2022-11-18T17:14:38.516Z,8.45
2022-11-18T17:17:07.501Z,11.10
2022-11-18T17:19:35.439Z,8.65
2022-11-18T17:22:03.539Z,9.95
2022-11-18T17:24:31.698Z,9.10
2022-11-18T17:26:59.882Z,8.35
2022-11-18T17:29:28.982Z,10.18
2022-11-18T17:31:57.181Z,8.18
2022-11-18T17:34:24.964Z,12.35
2022-11-18T17:36:52.850Z,13.45
2022-11-18T17:39:23.930Z,10.32
2022-11-18T17:42:10.351Z,21.10
2022-11-18T17:44:41.605Z,10.75
2022-11-18T17:47:09.563Z,12.57
2022-11-18T17:49:37.551Z,13.90
2022-11-18T17:52:05.999Z,13.43
2022-11-18T17:54:33.836Z,22.60
2022-11-18T17:57:01.731Z,25.85
2022-11-18T17:59:30.039Z,30.62
2022-11-18T18:01:59.812Z,29.75
2022-11-18T18:04:28.514Z,27.40
2022-11-18T18:06:56.329Z,18.33
2022-11-18T20:07:14.870Z,7.53
2022-11-18T20:09:42.701Z,9.48
2022-11-18T20:12:10.460Z,10.20
2022-11-18T20:14:38.509Z,14.48
2022-11-18T20:17:06.173Z,14.25
2022-11-18T20:19:33.834Z,15.38
2022-11-18T20:22:01.958Z,12.98
2022-11-18T20:24:29.623Z,11.65
2022-11-18T20:26:57.436Z,15.85
2022-11-18T20:29:25.671Z,23.30
2022-11-18T20:31:53.912Z,14.02
2022-11-18T20:34:22.372Z,17.33
2022-11-18T20:36:52.670Z,11.27
2022-11-18T20:39:20.760Z,16.75
2022-11-18T20:42:11.873Z,19.60
2022-11-18T20:44:39.943Z,20.70
2022-11-18T20:47:07.765Z,19.75
2022-11-18T20:49:35.524Z,19.90
2022-11-18T20:52:03.589Z,11.20
2022-11-18T20:54:31.353Z,12.10
2022-11-18T20:56:59.042Z,11.02
2022-11-18T20:59:27.254Z,12.00
2022-11-18T21:01:54.965Z,38.25
2022-11-18T21:04:22.871Z,123.47
2022-11-18T21:06:54.828Z,101.38
2022-11-18T21:09:22.864Z,32.50
2022-11-18T21:11:51.116Z,21.25
2022-11-18T21:14:26.756Z,18.83
2022-11-18T21:17:00.724Z,21.73
2022-11-18T21:19:29.863Z,7.32
2022-11-18T21:22:01.222Z,13.23
2022-11-18T21:24:31.312Z,12.45
2022-11-18T21:27:00.798Z,15.32
2022-11-18T21:29:31.187Z,14.07
2022-11-18T21:32:03.030Z,21.90
2022-11-18T21:34:31.401Z,15.02
2022-11-18T21:36:59.633Z,14.85
2022-11-18T21:39:27.876Z,9.65
2022-11-18T21:41:57.135Z,17.08
2022-11-18T21:44:28.497Z,14.05
2022-11-18T21:46:57.879Z,28.85
2022-11-18T21:49:26.109Z,55.90
2022-11-18T21:51:53.979Z,33.72
2022-11-18T21:54:21.737Z,24.60
2022-11-18T21:56:49.802Z,15.48
2022-11-18T21:59:17.863Z,14.93
2022-11-18T22:01:45.915Z,11.30
2022-11-18T22:04:34.191Z,22.77
2022-11-18T22:07:02.331Z,11.95
2022-11-18T22:09:36.051Z,24.42
2022-11-18T22:12:07.612Z,34.75
2022-11-18T22:14:36.429Z,33.95
2022-11-18T22:17:04.934Z,16.08
2022-11-18T22:19:32.942Z,12.80
2022-11-18T22:22:01.324Z,10.75
2022-11-18T22:24:32.283Z,13.27
2022-11-18T22:26:59.986Z,14.82
2022-11-18T22:29:31.076Z,12.18
2022-11-18T22:31:58.875Z,15.02
2022-11-18T22:34:26.825Z,15.18
2022-11-18T22:36:55.088Z,12.48
2022-11-18T22:39:23.070Z,14.20
2022-11-18T22:42:09.381Z,11.55
2022-11-18T22:44:37.824Z,11.52
2022-11-18T22:47:05.710Z,12.68
2022-11-18T22:49:33.638Z,12.77
2022-11-18T22:52:02.179Z,9.57
2022-11-18T22:54:40.573Z,11.60
2022-11-18T22:57:09.583Z,15.95
2022-11-18T22:59:37.625Z,13.80
2022-11-18T23:02:05.742Z,13.68
2022-11-18T23:04:34.046Z,11.23
2022-11-18T23:07:02.106Z,8.30
2022-11-18T23:09:30.100Z,7.95
2022-11-18T23:12:16.532Z,11.05
2022-11-18T23:14:44.394Z,11.90
2022-11-18T23:17:12.818Z,9.15
2022-11-18T23:19:44.251Z,6.93
2022-11-18T23:22:13.491Z,11.80
2022-11-18T23:24:41.330Z,20.55
2022-11-18T23:27:09.392Z,12.63
2022-11-18T23:29:38.833Z,15.98
2022-11-18T23:32:06.556Z,13.70
2022-11-18T23:34:34.436Z,15.95
2022-11-18T23:37:02.627Z,16.98
2022-11-18T23:39:33.488Z,14.48
2022-11-18T23:42:01.376Z,19.12
2022-11-18T23:44:49.431Z,15.90
2022-11-18T23:47:17.278Z,15.35
2022-11-18T23:49:45.400Z,17.40
2022-11-18T23:52:13.464Z,20.15
2022-11-18T23:54:41.465Z,15.57
2022-11-18T23:57:10.106Z,16.15
2022-11-18T23:59:37.977Z,17.62
